KGRF/GRF METAR and TAF weather

Enter ICAO airport designator
Station Type Date Time Source
KGRF METAR 2022/07/03 13:58 UTC NOAA

KGRF 031358Z AUTO 18006KT 10SM BKN017 OVC029 13/10 A2992 RMK AO2 SLP135 T01290095 $


Station Type Date Time Source
KGRF Decoded METAR 2022/07/03 13:58 UTC NOAA

Fort Lewis / Gray U. S. Army Airfield, WA, United States (KGRF) 47-07N 122-33W 87M
Jul 03, 2022 - 09:58 AM EDT / 2022.07.03 1358 UTC
Wind: from the S (180 degrees) at 7 MPH (6 KT):0
Visibility: 10 mile(s):0
Sky conditions: overcast
Temperature: 55.2 F (12.9 C)
Dew Point: 49.1 F (9.5 C)
Relative Humidity: 79%
Pressure (altimeter): 29.92 in. Hg (1013 hPa)
ob: KGRF 031358Z AUTO 18006KT 10SM BKN017 OVC029 13/10 A2992 RMK AO2 SLP135 T01290095
cycle: 14

Station Type Date Time Source
KGRF TAF 2022/07/03 13:21 UTC NOAA

TAF TAF KGRF 031300Z 0313/0419 19008KT 9999 SCT012 OVC015 QNH2992INS
BECMG 0321/0322 26006KT 9999 VCSH BKN020 QNH2990INS
BECMG 0401/0402 26006KT 9999 NSW BKN020 QNH2990INS
BECMG 0406/0407 26005KT 9000 BR BKN020 QNH2993INS
BECMG 0410/0411 20004KT 9999 NSW BKN025 QNH2994INS TX18/0323Z TN11/0412Z

Example: see airport list